createdAt,value
2022-12-24T00:02:49.416Z,64.29
2022-12-24T00:05:52.646Z,64.62
2022-12-24T00:08:55.432Z,64.99
2022-12-24T00:11:58.367Z,66.02
2022-12-24T00:15:01.222Z,67.67
2022-12-24T00:18:04.117Z,65.56
2022-12-24T00:21:07.339Z,65.00
2022-12-24T00:24:10.631Z,64.63
2022-12-24T00:27:13.423Z,64.07
2022-12-24T00:30:16.435Z,63.86
2022-12-24T00:33:24.234Z,64.41
2022-12-24T00:36:27.642Z,64.91
2022-12-24T00:39:31.204Z,66.17
2022-12-24T00:42:34.043Z,67.01
2022-12-24T00:45:36.817Z,67.45
2022-12-24T00:48:39.537Z,68.08
2022-12-24T00:51:42.442Z,68.62
2022-12-24T00:54:45.205Z,68.59
2022-12-24T00:57:47.954Z,67.69
2022-12-24T01:00:51.032Z,67.87
2022-12-24T01:04:14.612Z,67.58
2022-12-24T01:07:17.455Z,67.17
2022-12-24T01:10:20.823Z,67.75
2022-12-24T01:13:24.100Z,67.59
2022-12-24T01:16:27.153Z,66.68
2022-12-24T01:19:30.243Z,66.44
2022-12-24T01:22:33.042Z,66.86
2022-12-24T01:25:38.627Z,67.03
2022-12-24T01:28:42.250Z,67.02
2022-12-24T01:31:45.151Z,67.50
2022-12-24T01:34:50.181Z,67.52
2022-12-24T01:37:53.018Z,67.51
2022-12-24T01:41:14.708Z,67.42
2022-12-24T01:44:20.610Z,67.56
2022-12-24T01:47:30.447Z,67.66
2022-12-24T01:50:33.287Z,69.43
2022-12-24T01:53:38.658Z,69.39
2022-12-24T01:56:49.144Z,67.62
2022-12-24T01:59:57.962Z,66.84
2022-12-24T02:03:01.011Z,67.52
2022-12-24T02:06:04.928Z,66.41
2022-12-24T02:09:07.815Z,66.41
2022-12-24T02:12:10.761Z,66.90
2022-12-24T02:15:15.566Z,66.65
2022-12-24T02:18:34.079Z,66.01
2022-12-24T02:21:53.627Z,65.95
2022-12-24T02:25:16.759Z,65.91
2022-12-24T02:28:40.745Z,65.59
2022-12-24T02:32:12.370Z,65.72
2022-12-24T02:35:35.624Z,65.85
2022-12-24T02:38:51.977Z,65.86
2022-12-24T02:42:07.327Z,66.06
2022-12-24T02:45:31.698Z,67.27
2022-12-24T02:48:36.413Z,67.41
2022-12-24T02:51:39.233Z,66.81
2022-12-24T02:54:42.310Z,68.20
2022-12-24T02:58:18.743Z,69.42
2022-12-24T03:02:19.788Z,70.56
2022-12-24T03:05:55.286Z,70.54
2022-12-24T03:09:19.864Z,71.49
2022-12-24T03:12:43.040Z,71.78
2022-12-24T03:15:47.153Z,71.55
2022-12-24T03:18:53.377Z,72.78
2022-12-24T03:21:58.121Z,72.77
2022-12-24T03:25:01.563Z,72.60
2022-12-24T03:28:07.380Z,73.19
2022-12-24T03:31:11.725Z,73.08
2022-12-24T03:34:16.151Z,73.30
2022-12-24T03:37:18.939Z,72.95
2022-12-24T03:40:21.788Z,73.75
2022-12-24T03:43:24.678Z,74.43
2022-12-24T03:46:28.251Z,74.73
2022-12-24T03:49:31.110Z,74.89
2022-12-24T03:52:33.984Z,74.68
2022-12-24T03:55:37.895Z,74.72
2022-12-24T03:58:40.771Z,75.37
2022-12-24T04:01:43.676Z,76.08
2022-12-24T04:04:46.593Z,74.89
2022-12-24T04:07:49.426Z,75.14
2022-12-24T04:10:52.305Z,76.08
2022-12-24T04:13:55.177Z,73.99
2022-12-24T04:16:58.081Z,73.47
2022-12-24T04:20:00.944Z,72.02
2022-12-24T04:23:03.826Z,72.46
2022-12-24T04:26:08.866Z,73.64
2022-12-24T04:29:11.782Z,73.24
2022-12-24T04:32:14.915Z,74.19
2022-12-24T04:35:17.750Z,70.22
2022-12-24T04:38:20.519Z,67.01
2022-12-24T04:41:25.139Z,66.37
2022-12-24T04:44:28.083Z,66.00
2022-12-24T04:47:30.972Z,65.00
2022-12-24T04:50:33.840Z,63.31
2022-12-24T04:53:38.095Z,62.56
2022-12-24T04:56:40.950Z,63.28
2022-12-24T04:59:43.800Z,62.15
2022-12-24T05:02:46.679Z,60.54
2022-12-24T05:05:49.632Z,60.24
2022-12-24T05:08:55.952Z,60.00
2022-12-24T05:11:58.855Z,59.84
2022-12-24T05:15:01.678Z,60.76
2022-12-24T05:18:04.640Z,61.53
2022-12-24T05:21:14.583Z,61.50
2022-12-24T05:24:36.510Z,61.45
2022-12-24T05:27:39.573Z,61.11
2022-12-24T05:30:42.371Z,62.21
2022-12-24T05:33:45.889Z,62.02
2022-12-24T05:36:48.676Z,61.42
2022-12-24T05:39:51.526Z,61.39
2022-12-24T05:42:54.376Z,61.34
2022-12-24T05:46:07.469Z,60.68
2022-12-24T05:49:10.481Z,60.28
2022-12-24T05:52:13.352Z,60.55
2022-12-24T05:55:16.220Z,61.20
2022-12-24T05:58:19.024Z,61.79
2022-12-24T06:01:23.292Z,62.20
2022-12-24T06:04:28.956Z,62.50
2022-12-24T06:07:32.202Z,62.53
2022-12-24T06:10:35.072Z,63.36
2022-12-24T06:13:38.448Z,60.08
2022-12-24T06:16:41.442Z,57.52
2022-12-24T06:19:44.676Z,62.36
2022-12-24T06:22:47.538Z,65.66
2022-12-24T06:25:51.418Z,64.37
2022-12-24T06:28:54.277Z,62.69
2022-12-24T06:31:57.204Z,63.09
2022-12-24T06:35:00.137Z,62.78
2022-12-24T06:38:03.002Z,63.16
2022-12-24T06:41:07.627Z,63.92
2022-12-24T06:44:10.595Z,64.09
2022-12-24T06:47:13.407Z,65.01
2022-12-24T06:50:16.362Z,66.04
2022-12-24T06:53:19.298Z,66.09
2022-12-24T06:56:22.252Z,65.61
2022-12-24T06:59:25.261Z,66.94
2022-12-24T07:02:36.361Z,68.22
2022-12-24T07:05:42.587Z,67.79
2022-12-24T07:08:59.518Z,69.25
2022-12-24T07:12:12.587Z,69.79
2022-12-24T07:15:17.028Z,69.08
2022-12-24T07:18:20.093Z,68.47
2022-12-24T07:21:23.171Z,68.25
2022-12-24T07:24:34.608Z,67.16
2022-12-24T07:27:38.691Z,66.69
2022-12-24T07:30:41.618Z,65.74
2022-12-24T07:33:44.634Z,66.96
2022-12-24T07:36:47.659Z,65.92
2022-12-24T07:39:50.544Z,63.28
2022-12-24T07:42:53.492Z,63.01
2022-12-24T07:45:59.535Z,63.04
2022-12-24T07:49:02.436Z,62.19
2022-12-24T07:52:08.826Z,62.50
2022-12-24T07:55:12.248Z,60.92
2022-12-24T07:58:15.302Z,58.77
2022-12-24T08:01:19.523Z,60.99
2022-12-24T08:04:24.180Z,64.80
2022-12-24T08:07:27.304Z,62.94
2022-12-24T08:10:30.208Z,60.29
2022-12-24T08:13:33.148Z,60.19
2022-12-24T08:16:36.340Z,62.58
2022-12-24T08:19:39.373Z,64.77
2022-12-24T08:22:42.272Z,63.60
2022-12-24T08:25:47.070Z,61.73
2022-12-24T08:28:49.961Z,60.97
2022-12-24T08:31:52.883Z,60.73
2022-12-24T08:34:55.847Z,60.65
2022-12-24T08:37:59.112Z,60.76
2022-12-24T08:41:02.033Z,59.75
2022-12-24T08:44:05.159Z,60.43
2022-12-24T08:47:08.275Z,64.05
2022-12-24T08:50:12.498Z,64.09
2022-12-24T08:53:15.521Z,62.67
2022-12-24T08:56:18.478Z,62.03
2022-12-24T08:59:24.134Z,61.13
2022-12-24T09:02:27.178Z,59.97
2022-12-24T09:05:30.244Z,59.36
2022-12-24T09:08:33.592Z,62.69
2022-12-24T09:11:36.481Z,65.89
2022-12-24T09:14:39.478Z,65.77
2022-12-24T09:17:42.562Z,65.46
2022-12-24T09:20:46.978Z,64.85
2022-12-24T09:23:50.229Z,63.20
2022-12-24T09:26:57.668Z,63.10
2022-12-24T09:30:01.103Z,64.09
2022-12-24T09:33:04.142Z,63.49
2022-12-24T09:36:07.693Z,63.43
2022-12-24T09:39:10.516Z,62.88
2022-12-24T09:42:44.423Z,63.81
2022-12-24T09:46:01.381Z,63.72
2022-12-24T09:49:18.453Z,62.82
2022-12-24T09:52:40.572Z,61.91
2022-12-24T09:55:48.693Z,61.00
2022-12-24T09:59:00.110Z,60.59
2022-12-24T10:02:03.121Z,59.84
2022-12-24T10:05:10.255Z,61.74
2022-12-24T10:08:38.069Z,63.12
2022-12-24T10:12:08.847Z,61.47
2022-12-24T10:15:35.098Z,59.00
2022-12-24T10:18:56.983Z,59.82
2022-12-24T10:22:08.857Z,62.12
2022-12-24T10:25:25.575Z,64.91
2022-12-24T10:28:35.327Z,63.19
2022-12-24T10:31:53.315Z,61.10
2022-12-24T10:35:19.465Z,58.89
2022-12-24T10:38:22.549Z,60.61
2022-12-24T10:41:29.890Z,63.81
2022-12-24T10:44:34.733Z,59.09
2022-12-24T10:47:41.102Z,58.41
2022-12-24T10:50:54.746Z,62.56
2022-12-24T10:54:07.194Z,62.75
2022-12-24T10:57:25.718Z,60.33
2022-12-24T11:00:35.486Z,60.03
2022-12-24T11:03:39.977Z,62.46
2022-12-24T11:06:56.425Z,64.50
2022-12-24T11:10:07.678Z,65.01
2022-12-24T11:13:41.519Z,65.46
2022-12-24T11:16:57.695Z,65.06
2022-12-24T11:20:03.525Z,64.44
2022-12-24T11:23:06.988Z,64.76
2022-12-24T11:26:10.204Z,65.90
2022-12-24T11:29:28.422Z,66.66
2022-12-24T11:32:31.313Z,66.36
2022-12-24T11:35:41.519Z,66.82
2022-12-24T11:38:53.352Z,66.47
2022-12-24T11:41:56.207Z,67.17
2022-12-24T11:45:02.187Z,65.76
2022-12-24T11:48:24.635Z,65.29
2022-12-24T11:51:27.858Z,65.08
2022-12-24T11:54:37.219Z,64.65
2022-12-24T11:57:52.181Z,65.10
2022-12-24T12:01:33.315Z,65.30
2022-12-24T12:04:39.200Z,65.46
2022-12-24T12:07:43.208Z,66.26
2022-12-24T12:10:48.498Z,66.43
2022-12-24T12:13:52.570Z,66.85
2022-12-24T12:17:23.433Z,67.01
2022-12-24T12:20:40.667Z,66.99
2022-12-24T12:23:59.016Z,66.91
2022-12-24T12:27:28.079Z,67.16
2022-12-24T12:30:32.149Z,67.31
2022-12-24T12:33:43.480Z,67.62
2022-12-24T12:37:18.241Z,68.39
2022-12-24T12:40:27.446Z,66.62
2022-12-24T12:43:55.437Z,64.72
2022-12-24T12:47:04.572Z,63.67
2022-12-24T12:50:11.420Z,61.39
2022-12-24T12:53:20.620Z,61.01
2022-12-24T12:56:35.757Z,61.42
2022-12-24T12:59:53.204Z,61.26
2022-12-24T13:03:15.886Z,61.04
2022-12-24T13:06:55.994Z,61.06
2022-12-24T13:10:04.774Z,61.04
2022-12-24T13:13:31.314Z,60.89
2022-12-24T13:17:05.304Z,61.68
2022-12-24T13:20:20.672Z,61.07
2022-12-24T13:23:26.571Z,60.84
2022-12-24T13:26:29.561Z,61.42
2022-12-24T13:29:36.930Z,61.48
2022-12-24T13:32:52.084Z,61.82
2022-12-24T13:36:04.513Z,61.66
2022-12-24T13:39:19.838Z,61.99
2022-12-24T13:42:49.796Z,62.39
2022-12-24T13:45:52.741Z,62.48
2022-12-24T13:48:55.667Z,62.47
2022-12-24T13:52:10.828Z,62.51
2022-12-24T13:55:16.457Z,62.22
2022-12-24T13:58:22.772Z,61.82
2022-12-24T14:01:38.629Z,59.87
2022-12-24T14:04:42.512Z,58.28
2022-12-24T14:07:50.437Z,60.23
2022-12-24T14:11:19.806Z,64.11
2022-12-24T14:14:31.629Z,63.01
2022-12-24T14:17:36.346Z,59.64
2022-12-24T14:20:39.322Z,55.36
2022-12-24T14:24:03.165Z,58.33
2022-12-24T14:27:33.740Z,61.44
2022-12-24T14:30:36.576Z,66.79
2022-12-24T14:33:39.435Z,58.95
2022-12-24T14:36:44.740Z,56.59
2022-12-24T14:39:49.427Z,59.60
2022-12-24T14:43:30.001Z,64.68
2022-12-24T14:47:01.823Z,65.08
2022-12-24T14:50:18.958Z,61.13
2022-12-24T14:53:30.750Z,60.83
2022-12-24T14:56:33.666Z,62.08
2022-12-24T14:59:57.001Z,61.73
2022-12-24T15:03:00.162Z,60.73
2022-12-24T15:06:07.021Z,61.05
2022-12-24T15:09:27.286Z,62.07
2022-12-24T15:12:32.339Z,64.00
2022-12-24T15:15:36.599Z,56.96
2022-12-24T15:18:49.112Z,55.55
2022-12-24T15:21:52.928Z,56.86
2022-12-24T15:24:56.228Z,60.44
2022-12-24T15:27:59.644Z,67.34
2022-12-24T15:31:13.097Z,64.89
2022-12-24T15:34:35.177Z,60.01
2022-12-24T15:37:42.651Z,58.45
2022-12-24T15:40:48.991Z,59.93
2022-12-24T15:43:54.657Z,64.59
2022-12-24T15:47:00.026Z,63.47
2022-12-24T15:50:03.598Z,60.07
2022-12-24T15:53:20.377Z,57.19
2022-12-24T15:56:31.625Z,58.39
2022-12-24T15:59:38.753Z,62.01
2022-12-24T16:02:45.865Z,65.56
2022-12-24T16:06:09.720Z,65.96
2022-12-24T16:09:31.095Z,64.43
2022-12-24T16:12:35.119Z,58.52
2022-12-24T16:15:48.909Z,57.97
2022-12-24T16:18:51.713Z,60.87
2022-12-24T16:21:57.905Z,65.18
2022-12-24T16:25:23.077Z,65.77
2022-12-24T16:28:26.487Z,65.09
2022-12-24T16:31:54.566Z,64.38
2022-12-24T16:34:57.627Z,63.93
2022-12-24T16:38:00.548Z,62.53
2022-12-24T16:41:03.431Z,61.43
2022-12-24T16:44:06.386Z,60.41
2022-12-24T16:47:16.091Z,57.19
2022-12-24T16:50:19.315Z,58.88
2022-12-24T16:53:22.869Z,61.97
2022-12-24T16:56:25.642Z,65.50
2022-12-24T16:59:28.673Z,63.52
2022-12-24T17:02:31.672Z,62.82
2022-12-24T17:05:38.720Z,62.33
2022-12-24T17:08:41.661Z,62.70
2022-12-24T17:11:44.474Z,62.39
2022-12-24T17:14:47.365Z,57.35
2022-12-24T17:17:50.239Z,58.30
2022-12-24T17:21:01.556Z,60.71
2022-12-24T17:24:04.765Z,64.88
2022-12-24T17:27:07.692Z,66.22
2022-12-24T17:30:11.944Z,63.63
2022-12-24T17:33:15.234Z,62.02
2022-12-24T17:36:19.626Z,61.04
2022-12-24T17:39:27.721Z,61.38
2022-12-24T17:42:31.166Z,61.24
2022-12-24T17:45:34.181Z,60.72
2022-12-24T17:48:37.475Z,60.34
2022-12-24T17:51:45.273Z,60.56
2022-12-24T17:54:49.025Z,60.64
2022-12-24T17:57:51.919Z,60.78
2022-12-24T18:00:55.775Z,60.41
2022-12-24T18:04:01.224Z,60.15
2022-12-24T18:07:04.242Z,60.51
2022-12-24T18:10:08.025Z,60.79
2022-12-24T18:13:17.330Z,61.09
2022-12-24T18:16:25.878Z,61.18
2022-12-24T18:19:28.905Z,61.10
2022-12-24T18:22:31.894Z,60.53
2022-12-24T18:25:34.728Z,60.73
2022-12-24T18:28:38.463Z,60.64
2022-12-24T18:31:41.750Z,60.45
2022-12-24T18:34:44.688Z,60.51
2022-12-24T18:37:47.697Z,60.40
2022-12-24T18:40:50.609Z,60.49
2022-12-24T18:43:54.253Z,60.12
2022-12-24T18:46:57.114Z,60.33
2022-12-24T18:50:00.055Z,60.40
2022-12-24T18:53:04.268Z,60.31
2022-12-24T18:56:15.913Z,61.91
2022-12-24T18:59:24.036Z,61.77
2022-12-24T19:03:26.730Z,59.29
2022-12-24T19:06:30.581Z,59.21
2022-12-24T19:09:33.425Z,60.20
2022-12-24T19:12:36.232Z,64.94
2022-12-24T19:15:45.410Z,65.21
2022-12-24T19:18:48.372Z,67.17
2022-12-24T19:21:51.988Z,66.97
2022-12-24T19:24:54.867Z,65.36
2022-12-24T19:27:57.633Z,66.96
2022-12-24T19:31:09.325Z,63.30
2022-12-24T19:34:12.224Z,60.28
2022-12-24T19:37:15.221Z,56.90
2022-12-24T19:40:18.139Z,56.13
2022-12-24T19:43:20.991Z,58.90
2022-12-24T19:46:29.497Z,60.13
2022-12-24T19:49:32.533Z,65.71
2022-12-24T19:52:35.296Z,67.41
2022-12-24T19:55:38.106Z,63.44
2022-12-24T19:58:40.941Z,61.68
2022-12-24T20:01:44.428Z,60.16
2022-12-24T20:04:47.518Z,55.20
2022-12-24T20:07:50.570Z,56.40
2022-12-24T20:10:53.591Z,59.25
2022-12-24T20:14:01.980Z,66.41
2022-12-24T20:17:04.863Z,64.53
2022-12-24T20:20:08.300Z,55.93
2022-12-24T20:23:11.268Z,55.74
2022-12-24T20:26:17.280Z,58.69
2022-12-24T20:29:20.129Z,60.49
2022-12-24T20:32:22.916Z,68.21
2022-12-24T20:35:25.813Z,66.81
2022-12-24T20:38:28.623Z,58.64
2022-12-24T20:41:32.677Z,54.99
2022-12-24T20:44:35.584Z,58.07
2022-12-24T20:47:39.414Z,61.33
2022-12-24T20:50:42.315Z,67.36
2022-12-24T20:53:46.515Z,64.54
2022-12-24T20:56:57.750Z,57.75
2022-12-24T21:00:02.643Z,56.90
2022-12-24T21:03:05.744Z,59.89
2022-12-24T21:06:09.452Z,62.39
2022-12-24T21:09:12.527Z,66.72
2022-12-24T21:12:34.080Z,68.56
2022-12-24T21:15:42.536Z,61.48
2022-12-24T21:18:45.383Z,55.61
2022-12-24T21:21:48.953Z,54.76
2022-12-24T21:24:52.039Z,58.02
2022-12-24T21:27:55.727Z,58.63
2022-12-24T21:30:58.686Z,60.26
2022-12-24T21:34:03.497Z,68.99
2022-12-24T21:37:08.507Z,68.75
2022-12-24T21:40:12.137Z,62.09
2022-12-24T21:43:14.963Z,57.01
2022-12-24T21:46:23.241Z,54.82
2022-12-24T21:49:44.851Z,56.68
2022-12-24T21:52:49.200Z,59.52
2022-12-24T21:55:52.868Z,65.97
2022-12-24T21:58:55.701Z,65.90
2022-12-24T22:01:59.234Z,60.51
2022-12-24T22:05:02.254Z,55.59
2022-12-24T22:08:23.833Z,55.78
2022-12-24T22:11:50.259Z,57.24
2022-12-24T22:14:56.911Z,59.26
2022-12-24T22:17:59.839Z,65.31
2022-12-24T22:21:02.898Z,67.84
2022-12-24T22:24:06.398Z,63.65
2022-12-24T22:27:09.323Z,61.96
2022-12-24T22:30:12.464Z,62.20
2022-12-24T22:33:15.349Z,62.15
2022-12-24T22:36:18.101Z,57.91
2022-12-24T22:39:21.222Z,54.11
2022-12-24T22:42:24.018Z,56.81
2022-12-24T22:45:27.003Z,59.11
2022-12-24T22:48:29.831Z,60.54
2022-12-24T22:51:32.659Z,66.46
2022-12-24T22:54:36.538Z,68.30
2022-12-24T22:57:39.333Z,63.33
2022-12-24T23:00:44.565Z,61.01
2022-12-24T23:03:47.472Z,60.21
2022-12-24T23:06:50.541Z,56.79
2022-12-24T23:09:53.438Z,56.83
2022-12-24T23:13:15.568Z,59.51
2022-12-24T23:16:18.607Z,60.94
2022-12-24T23:19:21.458Z,65.80
2022-12-24T23:22:24.332Z,67.26
2022-12-24T23:25:27.276Z,65.29
2022-12-24T23:28:30.182Z,64.71
2022-12-24T23:31:35.024Z,62.00
2022-12-24T23:34:38.181Z,56.90
2022-12-24T23:37:41.127Z,56.60
2022-12-24T23:40:43.991Z,58.05
2022-12-24T23:43:47.633Z,59.77
2022-12-24T23:46:50.574Z,67.17
2022-12-24T23:49:53.428Z,65.65
2022-12-24T23:52:56.335Z,63.45
2022-12-24T23:55:59.211Z,62.77
2022-12-24T23:59:02.814Z,61.94
